sensor_id;sensor_type;location;lat;lon;timestamp;temperature;humidity
56268;DHT22;42175;46.930;9.532;2023-09-12T00:01:41;25.60;58.50
56268;DHT22;42175;46.930;9.532;2023-09-12T00:04:07;25.70;58.70
56268;DHT22;42175;46.930;9.532;2023-09-12T00:06:33;25.70;58.70
56268;DHT22;42175;46.930;9.532;2023-09-12T00:08:59;25.60;58.50
56268;DHT22;42175;46.930;9.532;2023-09-12T00:11:24;25.70;58.50
56268;DHT22;42175;46.930;9.532;2023-09-12T00:13:51;25.70;58.60
56268;DHT22;42175;46.930;9.532;2023-09-12T00:16:18;25.70;58.60
56268;DHT22;42175;46.930;9.532;2023-09-12T00:18:44;25.70;58.60
56268;DHT22;42175;46.930;9.532;2023-09-12T00:21:10;25.60;58.50
56268;DHT22;42175;46.930;9.532;2023-09-12T00:23:35;25.60;58.40
56268;DHT22;42175;46.930;9.532;2023-09-12T00:26:01;25.60;58.40
56268;DHT22;42175;46.930;9.532;2023-09-12T00:28:27;25.60;58.40
56268;DHT22;42175;46.930;9.532;2023-09-12T00:30:53;25.60;58.30
56268;DHT22;42175;46.930;9.532;2023-09-12T00:33:19;25.70;58.40
56268;DHT22;42175;46.930;9.532;2023-09-12T00:35:45;25.60;58.20
56268;DHT22;42175;46.930;9.532;2023-09-12T00:38:11;25.60;58.20
56268;DHT22;42175;46.930;9.532;2023-09-12T00:40:37;25.60;58.20
56268;DHT22;42175;46.930;9.532;2023-09-12T00:43:04;25.60;58.10
56268;DHT22;42175;46.930;9.532;2023-09-12T00:45:30;25.60;58.10
56268;DHT22;42175;46.930;9.532;2023-09-12T00:47:58;25.60;58.10
56268;DHT22;42175;46.930;9.532;2023-09-12T00:50:26;25.60;58.00
56268;DHT22;42175;46.930;9.532;2023-09-12T00:52:53;25.60;58.00
56268;DHT22;42175;46.930;9.532;2023-09-12T00:55:20;25.60;58.00
56268;DHT22;42175;46.930;9.532;2023-09-12T00:57:46;25.60;57.90
56268;DHT22;42175;46.930;9.532;2023-09-12T01:00:14;25.60;57.90
56268;DHT22;42175;46.930;9.532;2023-09-12T01:02:41;25.60;57.80
56268;DHT22;42175;46.930;9.532;2023-09-12T01:05:08;25.60;57.90
56268;DHT22;42175;46.930;9.532;2023-09-12T01:07:36;25.60;58.00
56268;DHT22;42175;46.930;9.532;2023-09-12T01:10:03;25.60;57.90
56268;DHT22;42175;46.930;9.532;2023-09-12T01:12:30;25.60;58.00
56268;DHT22;42175;46.930;9.532;2023-09-12T01:14:56;25.60;58.00
56268;DHT22;42175;46.930;9.532;2023-09-12T01:17:22;25.60;58.10
56268;DHT22;42175;46.930;9.532;2023-09-12T01:19:48;25.60;58.20
56268;DHT22;42175;46.930;9.532;2023-09-12T01:22:52;25.60;58.00
56268;DHT22;42175;46.930;9.532;2023-09-12T01:28:09;25.60;57.80
56268;DHT22;42175;46.930;9.532;2023-09-12T01:30:36;25.60;57.70
56268;DHT22;42175;46.930;9.532;2023-09-12T01:33:03;25.60;57.80
56268;DHT22;42175;46.930;9.532;2023-09-12T01:35:29;25.60;57.90
56268;DHT22;42175;46.930;9.532;2023-09-12T01:37:55;25.60;57.90
56268;DHT22;42175;46.930;9.532;2023-09-12T01:40:44;25.60;58.10
56268;DHT22;42175;46.930;9.532;2023-09-12T01:43:12;25.60;58.00
56268;DHT22;42175;46.930;9.532;2023-09-12T01:45:41;25.60;57.90
56268;DHT22;42175;46.930;9.532;2023-09-12T01:48:08;25.60;57.80
56268;DHT22;42175;46.930;9.532;2023-09-12T01:50:35;25.60;57.80
56268;DHT22;42175;46.930;9.532;2023-09-12T01:53:01;25.60;57.70
56268;DHT22;42175;46.930;9.532;2023-09-12T01:55:28;25.60;57.90
56268;DHT22;42175;46.930;9.532;2023-09-12T01:57:54;25.60;57.80
56268;DHT22;42175;46.930;9.532;2023-09-12T02:00:23;25.60;57.70
56268;DHT22;42175;46.930;9.532;2023-09-12T02:02:50;25.60;57.70
56268;DHT22;42175;46.930;9.532;2023-09-12T02:05:20;25.60;57.70
56268;DHT22;42175;46.930;9.532;2023-09-12T02:07:47;25.60;57.70
56268;DHT22;42175;46.930;9.532;2023-09-12T02:10:14;25.60;57.70
56268;DHT22;42175;46.930;9.532;2023-09-12T02:12:40;25.50;57.50
56268;DHT22;42175;46.930;9.532;2023-09-12T02:15:07;25.60;57.50
56268;DHT22;42175;46.930;9.532;2023-09-12T02:17:33;25.60;57.60
56268;DHT22;42175;46.930;9.532;2023-09-12T02:19:58;25.60;57.80
56268;DHT22;42175;46.930;9.532;2023-09-12T02:22:24;25.60;57.70
56268;DHT22;42175;46.930;9.532;2023-09-12T02:24:50;25.60;57.80
56268;DHT22;42175;46.930;9.532;2023-09-12T02:27:16;25.60;57.90
56268;DHT22;42175;46.930;9.532;2023-09-12T02:29:42;25.60;57.80
56268;DHT22;42175;46.930;9.532;2023-09-12T02:32:09;25.60;57.90
56268;DHT22;42175;46.930;9.532;2023-09-12T02:34:35;25.60;57.70
56268;DHT22;42175;46.930;9.532;2023-09-12T02:37:01;25.60;57.70
56268;DHT22;42175;46.930;9.532;2023-09-12T02:39:26;25.60;57.80
56268;DHT22;42175;46.930;9.532;2023-09-12T02:41:52;25.60;57.70
56268;DHT22;42175;46.930;9.532;2023-09-12T02:44:18;25.60;57.70
56268;DHT22;42175;46.930;9.532;2023-09-12T02:46:44;25.60;57.60
56268;DHT22;42175;46.930;9.532;2023-09-12T02:49:09;25.50;57.40
56268;DHT22;42175;46.930;9.532;2023-09-12T02:51:39;25.60;57.40
56268;DHT22;42175;46.930;9.532;2023-09-12T02:54:05;25.60;57.50
56268;DHT22;42175;46.930;9.532;2023-09-12T02:56:31;25.60;57.50
56268;DHT22;42175;46.930;9.532;2023-09-12T02:58:57;25.60;57.60
56268;DHT22;42175;46.930;9.532;2023-09-12T03:01:22;25.60;57.60
56268;DHT22;42175;46.930;9.532;2023-09-12T03:03:51;25.60;57.60
56268;DHT22;42175;46.930;9.532;2023-09-12T03:06:17;25.60;57.60
56268;DHT22;42175;46.930;9.532;2023-09-12T03:08:46;25.60;57.50
56268;DHT22;42175;46.930;9.532;2023-09-12T03:11:12;25.60;57.50
56268;DHT22;42175;46.930;9.532;2023-09-12T03:13:40;25.60;57.40
56268;DHT22;42175;46.930;9.532;2023-09-12T03:16:10;25.60;57.50
56268;DHT22;42175;46.930;9.532;2023-09-12T03:18:36;25.60;57.50
56268;DHT22;42175;46.930;9.532;2023-09-12T03:21:02;25.60;57.50
56268;DHT22;42175;46.930;9.532;2023-09-12T03:23:28;25.60;57.40
56268;DHT22;42175;46.930;9.532;2023-09-12T03:25:54;25.60;57.30
56268;DHT22;42175;46.930;9.532;2023-09-12T03:28:20;25.60;57.40
56268;DHT22;42175;46.930;9.532;2023-09-12T03:30:46;25.50;57.20
56268;DHT22;42175;46.930;9.532;2023-09-12T03:33:12;25.60;57.30
56268;DHT22;42175;46.930;9.532;2023-09-12T03:35:38;25.60;57.30
56268;DHT22;42175;46.930;9.532;2023-09-12T03:38:04;25.50;57.20
56268;DHT22;42175;46.930;9.532;2023-09-12T03:40:30;25.50;57.20
56268;DHT22;42175;46.930;9.532;2023-09-12T03:42:57;25.60;57.30
56268;DHT22;42175;46.930;9.532;2023-09-12T03:45:23;25.60;57.20
56268;DHT22;42175;46.930;9.532;2023-09-12T03:47:50;25.50;57.20
56268;DHT22;42175;46.930;9.532;2023-09-12T03:50:16;25.50;57.30
56268;DHT22;42175;46.930;9.532;2023-09-12T03:52:42;25.60;57.40
56268;DHT22;42175;46.930;9.532;2023-09-12T03:55:08;25.60;57.30
56268;DHT22;42175;46.930;9.532;2023-09-12T03:57:34;25.50;57.30
56268;DHT22;42175;46.930;9.532;2023-09-12T04:00:00;25.60;57.30
56268;DHT22;42175;46.930;9.532;2023-09-12T04:02:26;25.50;57.00
56268;DHT22;42175;46.930;9.532;2023-09-12T04:04:52;25.50;57.10
56268;DHT22;42175;46.930;9.532;2023-09-12T04:07:18;25.50;57.10
56268;DHT22;42175;46.930;9.532;2023-09-12T04:09:44;25.50;56.90
56268;DHT22;42175;46.930;9.532;2023-09-12T04:12:09;25.50;56.90
56268;DHT22;42175;46.930;9.532;2023-09-12T04:14:35;25.50;56.80
56268;DHT22;42175;46.930;9.532;2023-09-12T04:17:02;25.50;56.80
56268;DHT22;42175;46.930;9.532;2023-09-12T04:19:30;25.50;56.80
56268;DHT22;42175;46.930;9.532;2023-09-12T04:21:56;25.50;56.90
56268;DHT22;42175;46.930;9.532;2023-09-12T04:24:21;25.50;56.90
56268;DHT22;42175;46.930;9.532;2023-09-12T04:26:47;25.50;56.90
56268;DHT22;42175;46.930;9.532;2023-09-12T04:29:13;25.50;56.80
56268;DHT22;42175;46.930;9.532;2023-09-12T04:31:39;25.50;56.80
56268;DHT22;42175;46.930;9.532;2023-09-12T04:34:05;25.50;56.80
56268;DHT22;42175;46.930;9.532;2023-09-12T04:36:31;25.50;56.70
56268;DHT22;42175;46.930;9.532;2023-09-12T04:38:56;25.50;56.90
56268;DHT22;42175;46.930;9.532;2023-09-12T04:41:22;25.50;56.80
56268;DHT22;42175;46.930;9.532;2023-09-12T04:43:48;25.50;57.20
56268;DHT22;42175;46.930;9.532;2023-09-12T04:46:14;25.20;54.80
56268;DHT22;42175;46.930;9.532;2023-09-12T04:48:40;25.10;55.20
56268;DHT22;42175;46.930;9.532;2023-09-12T04:51:06;24.90;55.00
56268;DHT22;42175;46.930;9.532;2023-09-12T04:53:31;24.90;55.20
56268;DHT22;42175;46.930;9.532;2023-09-12T04:56:04;24.80;55.00
56268;DHT22;42175;46.930;9.532;2023-09-12T04:58:31;24.70;54.60
56268;DHT22;42175;46.930;9.532;2023-09-12T05:00:58;24.70;54.80
56268;DHT22;42175;46.930;9.532;2023-09-12T05:03:23;24.60;54.70
56268;DHT22;42175;46.930;9.532;2023-09-12T05:05:50;24.60;54.90
56268;DHT22;42175;46.930;9.532;2023-09-12T05:08:16;24.60;55.00
56268;DHT22;42175;46.930;9.532;2023-09-12T05:10:46;24.70;55.10
56268;DHT22;42175;46.930;9.532;2023-09-12T05:13:13;24.60;54.90
56268;DHT22;42175;46.930;9.532;2023-09-12T05:15:40;24.50;55.30
56268;DHT22;42175;46.930;9.532;2023-09-12T05:18:06;24.30;55.60
56268;DHT22;42175;46.930;9.532;2023-09-12T05:20:33;24.10;56.30
56268;DHT22;42175;46.930;9.532;2023-09-12T05:22:59;24.10;56.30
56268;DHT22;42175;46.930;9.532;2023-09-12T05:25:25;23.80;56.90
56268;DHT22;42175;46.930;9.532;2023-09-12T05:27:52;24.00;57.00
56268;DHT22;42175;46.930;9.532;2023-09-12T05:30:18;24.10;56.40
56268;DHT22;42175;46.930;9.532;2023-09-12T05:32:44;24.20;56.30
56268;DHT22;42175;46.930;9.532;2023-09-12T05:35:10;24.20;56.10
56268;DHT22;42175;46.930;9.532;2023-09-12T05:37:36;24.10;56.40
56268;DHT22;42175;46.930;9.532;2023-09-12T05:40:01;24.10;56.60
56268;DHT22;42175;46.930;9.532;2023-09-12T05:42:28;24.10;56.80
56268;DHT22;42175;46.930;9.532;2023-09-12T05:44:54;24.00;57.10
56268;DHT22;42175;46.930;9.532;2023-09-12T05:47:20;24.10;57.40
56268;DHT22;42175;46.930;9.532;2023-09-12T05:49:46;24.20;57.20
56268;DHT22;42175;46.930;9.532;2023-09-12T05:52:12;24.10;56.90
56268;DHT22;42175;46.930;9.532;2023-09-12T05:54:39;24.00;57.30
56268;DHT22;42175;46.930;9.532;2023-09-12T05:57:07;23.90;57.50
56268;DHT22;42175;46.930;9.532;2023-09-12T05:59:35;23.80;57.90
56268;DHT22;42175;46.930;9.532;2023-09-12T06:02:02;23.80;58.10
56268;DHT22;42175;46.930;9.532;2023-09-12T06:04:27;23.70;58.40
56268;DHT22;42175;46.930;9.532;2023-09-12T06:06:53;23.80;57.30
56268;DHT22;42175;46.930;9.532;2023-09-12T06:09:19;23.40;57.00
56268;DHT22;42175;46.930;9.532;2023-09-12T06:11:45;23.30;59.40
56268;DHT22;42175;46.930;9.532;2023-09-12T06:14:10;23.50;59.40
56268;DHT22;42175;46.930;9.532;2023-09-12T06:16:36;23.60;58.70
56268;DHT22;42175;46.930;9.532;2023-09-12T06:19:02;23.60;57.90
56268;DHT22;42175;46.930;9.532;2023-09-12T06:21:28;23.50;57.00
56268;DHT22;42175;46.930;9.532;2023-09-12T06:24:10;23.50;57.70
56268;DHT22;42175;46.930;9.532;2023-09-12T06:26:39;23.30;58.30
56268;DHT22;42175;46.930;9.532;2023-09-12T06:29:06;23.50;57.90
56268;DHT22;42175;46.930;9.532;2023-09-12T06:31:32;23.50;57.40
56268;DHT22;42175;46.930;9.532;2023-09-12T06:33:58;23.60;56.60
56268;DHT22;42175;46.930;9.532;2023-09-12T06:36:27;23.60;56.50
56268;DHT22;42175;46.930;9.532;2023-09-12T06:38:55;23.50;56.80
56268;DHT22;42175;46.930;9.532;2023-09-12T06:41:21;23.30;57.30
56268;DHT22;42175;46.930;9.532;2023-09-12T06:43:48;23.30;56.90
56268;DHT22;42175;46.930;9.532;2023-09-12T06:46:14;23.50;56.50
56268;DHT22;42175;46.930;9.532;2023-09-12T06:48:43;23.60;56.50
56268;DHT22;42175;46.930;9.532;2023-09-12T06:51:10;23.60;56.50
56268;DHT22;42175;46.930;9.532;2023-09-12T06:53:36;23.70;56.50
56268;DHT22;42175;46.930;9.532;2023-09-12T06:56:05;23.70;56.40
56268;DHT22;42175;46.930;9.532;2023-09-12T06:58:32;23.80;56.20
56268;DHT22;42175;46.930;9.532;2023-09-12T07:01:03;23.80;56.60
56268;DHT22;42175;46.930;9.532;2023-09-12T07:03:30;23.70;56.70
56268;DHT22;42175;46.930;9.532;2023-09-12T07:05:56;23.50;57.00
56268;DHT22;42175;46.930;9.532;2023-09-12T07:08:22;23.50;57.40
56268;DHT22;42175;46.930;9.532;2023-09-12T07:10:47;23.50;57.80
56268;DHT22;42175;46.930;9.532;2023-09-12T07:13:13;23.30;58.20
56268;DHT22;42175;46.930;9.532;2023-09-12T07:15:39;23.30;59.30
56268;DHT22;42175;46.930;9.532;2023-09-12T07:18:05;23.10;59.90
56268;DHT22;42175;46.930;9.532;2023-09-12T07:20:33;22.90;60.50
56268;DHT22;42175;46.930;9.532;2023-09-12T07:22:59;23.10;59.90
56268;DHT22;42175;46.930;9.532;2023-09-12T07:25:25;23.30;59.00
56268;DHT22;42175;46.930;9.532;2023-09-12T07:27:51;23.50;58.50
56268;DHT22;42175;46.930;9.532;2023-09-12T07:30:17;23.60;57.50
56268;DHT22;42175;46.930;9.532;2023-09-12T07:32:43;23.70;57.10
56268;DHT22;42175;46.930;9.532;2023-09-12T07:35:09;23.60;56.50
56268;DHT22;42175;46.930;9.532;2023-09-12T07:37:34;23.50;56.70
56268;DHT22;42175;46.930;9.532;2023-09-12T07:40:00;23.60;56.90
56268;DHT22;42175;46.930;9.532;2023-09-12T07:42:26;23.70;56.70
56268;DHT22;42175;46.930;9.532;2023-09-12T07:44:52;23.70;56.60
56268;DHT22;42175;46.930;9.532;2023-09-12T07:47:18;23.60;56.60
56268;DHT22;42175;46.930;9.532;2023-09-12T07:49:44;23.70;56.30
56268;DHT22;42175;46.930;9.532;2023-09-12T07:52:10;23.70;56.20
56268;DHT22;42175;46.930;9.532;2023-09-12T07:54:36;23.70;55.90
56268;DHT22;42175;46.930;9.532;2023-09-12T07:57:02;23.80;56.00
56268;DHT22;42175;46.930;9.532;2023-09-12T07:59:28;23.70;56.70
56268;DHT22;42175;46.930;9.532;2023-09-12T08:01:54;23.70;56.30
56268;DHT22;42175;46.930;9.532;2023-09-12T08:04:20;23.50;56.60
56268;DHT22;42175;46.930;9.532;2023-09-12T08:06:46;23.60;57.10
56268;DHT22;42175;46.930;9.532;2023-09-12T08:09:12;23.70;57.40
56268;DHT22;42175;46.930;9.532;2023-09-12T08:11:37;23.80;56.90
56268;DHT22;42175;46.930;9.532;2023-09-12T08:14:03;23.80;56.00
56268;DHT22;42175;46.930;9.532;2023-09-12T08:16:29;23.60;56.40
56268;DHT22;42175;46.930;9.532;2023-09-12T08:18:56;23.70;56.50
56268;DHT22;42175;46.930;9.532;2023-09-12T08:21:22;23.90;56.30
56268;DHT22;42175;46.930;9.532;2023-09-12T08:23:48;23.90;56.10
56268;DHT22;42175;46.930;9.532;2023-09-12T08:26:14;23.80;55.80
56268;DHT22;42175;46.930;9.532;2023-09-12T08:28:39;23.70;56.40
56268;DHT22;42175;46.930;9.532;2023-09-12T08:31:06;23.70;56.60
56268;DHT22;42175;46.930;9.532;2023-09-12T08:33:31;23.60;56.90
56268;DHT22;42175;46.930;9.532;2023-09-12T08:35:57;23.70;56.60
56268;DHT22;42175;46.930;9.532;2023-09-12T08:38:23;23.70;56.70
56268;DHT22;42175;46.930;9.532;2023-09-12T08:40:50;23.70;56.20
56268;DHT22;42175;46.930;9.532;2023-09-12T08:43:16;23.60;57.10
56268;DHT22;42175;46.930;9.532;2023-09-12T08:45:42;23.60;56.80
56268;DHT22;42175;46.930;9.532;2023-09-12T08:48:12;23.80;57.00
56268;DHT22;42175;46.930;9.532;2023-09-12T08:50:39;23.90;56.60
56268;DHT22;42175;46.930;9.532;2023-09-12T08:53:06;24.00;55.50
56268;DHT22;42175;46.930;9.532;2023-09-12T08:55:32;23.90;55.50
56268;DHT22;42175;46.930;9.532;2023-09-12T08:58:03;24.00;55.60
56268;DHT22;42175;46.930;9.532;2023-09-12T09:00:29;24.00;55.70
56268;DHT22;42175;46.930;9.532;2023-09-12T09:02:56;24.00;55.90
56268;DHT22;42175;46.930;9.532;2023-09-12T09:05:22;23.90;55.90
56268;DHT22;42175;46.930;9.532;2023-09-12T09:07:49;24.00;56.10
56268;DHT22;42175;46.930;9.532;2023-09-12T09:10:17;24.10;56.20
56268;DHT22;42175;46.930;9.532;2023-09-12T09:12:45;24.20;56.50
56268;DHT22;42175;46.930;9.532;2023-09-12T09:15:28;24.20;56.40
56268;DHT22;42175;46.930;9.532;2023-09-12T09:17:55;24.30;56.30
56268;DHT22;42175;46.930;9.532;2023-09-12T09:20:30;24.30;56.00
56268;DHT22;42175;46.930;9.532;2023-09-12T09:22:57;24.30;55.20
56268;DHT22;42175;46.930;9.532;2023-09-12T09:25:23;24.20;55.80
56268;DHT22;42175;46.930;9.532;2023-09-12T09:27:49;24.20;56.00
56268;DHT22;42175;46.930;9.532;2023-09-12T09:30:15;24.40;56.00
56268;DHT22;42175;46.930;9.532;2023-09-12T09:32:41;24.40;55.60
56268;DHT22;42175;46.930;9.532;2023-09-12T09:35:07;24.50;55.80
56268;DHT22;42175;46.930;9.532;2023-09-12T09:37:35;24.60;55.60
56268;DHT22;42175;46.930;9.532;2023-09-12T09:40:00;24.70;55.60
56268;DHT22;42175;46.930;9.532;2023-09-12T09:42:29;24.70;55.50
56268;DHT22;42175;46.930;9.532;2023-09-12T09:44:55;24.80;55.50
56268;DHT22;42175;46.930;9.532;2023-09-12T09:47:21;24.80;55.50
56268;DHT22;42175;46.930;9.532;2023-09-12T09:49:46;24.90;55.10
56268;DHT22;42175;46.930;9.532;2023-09-12T09:52:13;24.80;55.00
56268;DHT22;42175;46.930;9.532;2023-09-12T09:54:44;24.80;54.00
56268;DHT22;42175;46.930;9.532;2023-09-12T09:57:10;24.60;54.30
56268;DHT22;42175;46.930;9.532;2023-09-12T09:59:36;24.70;55.00
56268;DHT22;42175;46.930;9.532;2023-09-12T10:02:04;24.80;55.10
56268;DHT22;42175;46.930;9.532;2023-09-12T10:04:32;24.90;55.40
56268;DHT22;42175;46.930;9.532;2023-09-12T10:06:59;24.90;55.40
56268;DHT22;42175;46.930;9.532;2023-09-12T10:09:29;25.00;55.30
56268;DHT22;42175;46.930;9.532;2023-09-12T10:11:57;25.00;55.10
56268;DHT22;42175;46.930;9.532;2023-09-12T10:14:26;25.10;55.10
56268;DHT22;42175;46.930;9.532;2023-09-12T10:17:00;25.10;55.10
56268;DHT22;42175;46.930;9.532;2023-09-12T10:19:43;25.10;53.20
56268;DHT22;42175;46.930;9.532;2023-09-12T10:22:21;25.10;54.40
56268;DHT22;42175;46.930;9.532;2023-09-12T10:24:50;25.20;54.70
56268;DHT22;42175;46.930;9.532;2023-09-12T10:27:19;25.30;52.70
56268;DHT22;42175;46.930;9.532;2023-09-12T10:29:45;25.40;53.70
56268;DHT22;42175;46.930;9.532;2023-09-12T10:32:14;25.40;54.20
56268;DHT22;42175;46.930;9.532;2023-09-12T10:34:41;25.40;54.50
56268;DHT22;42175;46.930;9.532;2023-09-12T10:37:12;25.40;55.20
56268;DHT22;42175;46.930;9.532;2023-09-12T10:39:42;25.40;54.20
56268;DHT22;42175;46.930;9.532;2023-09-12T10:42:09;25.40;52.30
56268;DHT22;42175;46.930;9.532;2023-09-12T10:44:38;25.50;52.90
56268;DHT22;42175;46.930;9.532;2023-09-12T10:47:05;25.40;53.10
56268;DHT22;42175;46.930;9.532;2023-09-12T10:49:32;25.40;54.00
56268;DHT22;42175;46.930;9.532;2023-09-12T10:51:58;25.40;53.90
56268;DHT22;42175;46.930;9.532;2023-09-12T10:54:38;25.50;53.50
56268;DHT22;42175;46.930;9.532;2023-09-12T10:57:09;25.50;53.60
56268;DHT22;42175;46.930;9.532;2023-09-12T11:02:38;25.30;55.70
56268;DHT22;42175;46.930;9.532;2023-09-12T11:05:05;25.30;56.00
56268;DHT22;42175;46.930;9.532;2023-09-12T11:12:43;25.20;57.30
56268;DHT22;42175;46.930;9.532;2023-09-12T11:15:09;25.20;57.60
56268;DHT22;42175;46.930;9.532;2023-09-12T11:17:46;25.20;57.90
56268;DHT22;42175;46.930;9.532;2023-09-12T11:20:12;25.20;58.90
56268;DHT22;42175;46.930;9.532;2023-09-12T11:22:48;25.20;58.80
56268;DHT22;42175;46.930;9.532;2023-09-12T11:25:21;25.20;58.90
56268;DHT22;42175;46.930;9.532;2023-09-12T11:30:26;25.20;59.10
56268;DHT22;42175;46.930;9.532;2023-09-12T11:32:57;25.20;58.90
56268;DHT22;42175;46.930;9.532;2023-09-12T11:35:25;25.20;59.60
56268;DHT22;42175;46.930;9.532;2023-09-12T11:37:54;25.20;59.40
56268;DHT22;42175;46.930;9.532;2023-09-12T11:42:58;25.20;60.20
56268;DHT22;42175;46.930;9.532;2023-09-12T11:45:24;25.20;59.50
56268;DHT22;42175;46.930;9.532;2023-09-12T11:47:51;25.20;59.80
56268;DHT22;42175;46.930;9.532;2023-09-12T11:50:34;25.20;60.70
56268;DHT22;42175;46.930;9.532;2023-09-12T11:53:09;25.20;60.50
56268;DHT22;42175;46.930;9.532;2023-09-12T11:55:47;25.20;60.10
56268;DHT22;42175;46.930;9.532;2023-09-12T11:58:15;25.20;60.70
56268;DHT22;42175;46.930;9.532;2023-09-12T12:00:55;25.20;60.60
56268;DHT22;42175;46.930;9.532;2023-09-12T12:03:23;25.20;60.00
56268;DHT22;42175;46.930;9.532;2023-09-12T12:05:50;25.20;60.70
56268;DHT22;42175;46.930;9.532;2023-09-12T12:08:17;25.20;60.50
56268;DHT22;42175;46.930;9.532;2023-09-12T12:10:43;25.30;60.50
56268;DHT22;42175;46.930;9.532;2023-09-12T12:13:16;25.30;60.00
56268;DHT22;42175;46.930;9.532;2023-09-12T12:15:42;25.30;60.80
56268;DHT22;42175;46.930;9.532;2023-09-12T12:18:08;25.30;60.20
56268;DHT22;42175;46.930;9.532;2023-09-12T12:20:34;25.20;60.40
56268;DHT22;42175;46.930;9.532;2023-09-12T12:23:00;25.30;60.20
56268;DHT22;42175;46.930;9.532;2023-09-12T12:25:25;25.30;60.30
56268;DHT22;42175;46.930;9.532;2023-09-12T12:27:51;25.30;60.50
56268;DHT22;42175;46.930;9.532;2023-09-12T12:30:18;25.30;60.10
56268;DHT22;42175;46.930;9.532;2023-09-12T12:32:46;25.20;60.70
56268;DHT22;42175;46.930;9.532;2023-09-12T12:35:19;25.30;60.50
56268;DHT22;42175;46.930;9.532;2023-09-12T12:37:48;25.30;60.30
56268;DHT22;42175;46.930;9.532;2023-09-12T12:40:15;25.20;59.80
56268;DHT22;42175;46.930;9.532;2023-09-12T12:42:43;25.30;60.70
56268;DHT22;42175;46.930;9.532;2023-09-12T12:45:17;25.30;60.30
56268;DHT22;42175;46.930;9.532;2023-09-12T12:47:43;25.20;59.10
56268;DHT22;42175;46.930;9.532;2023-09-12T12:50:15;25.30;60.40
56268;DHT22;42175;46.930;9.532;2023-09-12T12:52:42;25.30;60.50
56268;DHT22;42175;46.930;9.532;2023-09-12T12:55:12;25.30;59.10
56268;DHT22;42175;46.930;9.532;2023-09-12T12:57:42;25.30;59.70
56268;DHT22;42175;46.930;9.532;2023-09-12T13:00:11;25.30;59.50
56268;DHT22;42175;46.930;9.532;2023-09-12T13:02:40;25.30;60.00
56268;DHT22;42175;46.930;9.532;2023-09-12T13:05:26;25.30;60.00
56268;DHT22;42175;46.930;9.532;2023-09-12T13:07:52;25.30;59.50
56268;DHT22;42175;46.930;9.532;2023-09-12T13:10:19;25.30;59.50
56268;DHT22;42175;46.930;9.532;2023-09-12T13:12:46;25.30;59.60
56268;DHT22;42175;46.930;9.532;2023-09-12T13:15:13;25.30;60.00
56268;DHT22;42175;46.930;9.532;2023-09-12T13:17:40;25.30;59.70
56268;DHT22;42175;46.930;9.532;2023-09-12T13:20:07;25.30;59.60
56268;DHT22;42175;46.930;9.532;2023-09-12T13:22:38;25.20;60.10
56268;DHT22;42175;46.930;9.532;2023-09-12T13:25:05;25.30;60.50
56268;DHT22;42175;46.930;9.532;2023-09-12T13:27:31;25.30;60.60
56268;DHT22;42175;46.930;9.532;2023-09-12T13:29:57;25.30;60.50
56268;DHT22;42175;46.930;9.532;2023-09-12T13:32:23;25.30;60.30
56268;DHT22;42175;46.930;9.532;2023-09-12T13:34:48;25.30;60.30
56268;DHT22;42175;46.930;9.532;2023-09-12T13:37:16;25.30;59.80
56268;DHT22;42175;46.930;9.532;2023-09-12T13:39:42;25.30;60.00
56268;DHT22;42175;46.930;9.532;2023-09-12T13:42:15;25.30;60.60
56268;DHT22;42175;46.930;9.532;2023-09-12T13:44:46;25.30;60.60
56268;DHT22;42175;46.930;9.532;2023-09-12T13:47:12;25.30;60.90
56268;DHT22;42175;46.930;9.532;2023-09-12T13:49:38;25.30;60.70
56268;DHT22;42175;46.930;9.532;2023-09-12T13:52:04;25.30;61.50
56268;DHT22;42175;46.930;9.532;2023-09-12T13:54:30;25.40;61.70
56268;DHT22;42175;46.930;9.532;2023-09-12T13:56:56;25.30;61.80
56268;DHT22;42175;46.930;9.532;2023-09-12T13:59:22;25.30;62.20
56268;DHT22;42175;46.930;9.532;2023-09-12T14:01:48;25.40;62.10
56268;DHT22;42175;46.930;9.532;2023-09-12T14:04:13;25.30;61.90
56268;DHT22;42175;46.930;9.532;2023-09-12T14:06:41;25.30;62.10
56268;DHT22;42175;46.930;9.532;2023-09-12T14:09:07;25.40;62.10
56268;DHT22;42175;46.930;9.532;2023-09-12T14:11:33;25.40;62.60
56268;DHT22;42175;46.930;9.532;2023-09-12T14:13:59;25.40;62.40
56268;DHT22;42175;46.930;9.532;2023-09-12T14:16:24;25.40;62.40
56268;DHT22;42175;46.930;9.532;2023-09-12T14:18:50;25.40;62.30
56268;DHT22;42175;46.930;9.532;2023-09-12T14:21:16;25.40;61.80
56268;DHT22;42175;46.930;9.532;2023-09-12T14:23:41;25.40;62.00
56268;DHT22;42175;46.930;9.532;2023-09-12T14:26:07;25.40;61.80
56268;DHT22;42175;46.930;9.532;2023-09-12T14:28:33;25.30;61.90
56268;DHT22;42175;46.930;9.532;2023-09-12T14:31:00;25.30;62.30
56268;DHT22;42175;46.930;9.532;2023-09-12T14:33:29;25.30;62.30
56268;DHT22;42175;46.930;9.532;2023-09-12T14:35:55;25.30;62.90
56268;DHT22;42175;46.930;9.532;2023-09-12T14:38:20;25.30;62.80
56268;DHT22;42175;46.930;9.532;2023-09-12T14:40:46;25.30;62.50
56268;DHT22;42175;46.930;9.532;2023-09-12T14:43:12;25.40;62.70
56268;DHT22;42175;46.930;9.532;2023-09-12T14:45:38;25.40;63.10
56268;DHT22;42175;46.930;9.532;2023-09-12T14:48:05;25.10;64.00
56268;DHT22;42175;46.930;9.532;2023-09-12T14:50:30;24.70;63.80
56268;DHT22;42175;46.930;9.532;2023-09-12T14:52:57;24.60;63.50
56268;DHT22;42175;46.930;9.532;2023-09-12T14:55:22;24.60;63.70
56268;DHT22;42175;46.930;9.532;2023-09-12T14:57:48;24.60;63.60
56268;DHT22;42175;46.930;9.532;2023-09-12T15:00:15;24.70;64.20
56268;DHT22;42175;46.930;9.532;2023-09-12T15:02:40;24.40;63.40
56268;DHT22;42175;46.930;9.532;2023-09-12T15:05:07;24.50;63.00
56268;DHT22;42175;46.930;9.532;2023-09-12T15:07:34;24.60;62.50
56268;DHT22;42175;46.930;9.532;2023-09-12T15:10:02;24.60;61.30
56268;DHT22;42175;46.930;9.532;2023-09-12T15:12:28;24.60;61.60
56268;DHT22;42175;46.930;9.532;2023-09-12T15:14:54;24.70;61.90
56268;DHT22;42175;46.930;9.532;2023-09-12T15:17:20;24.60;60.60
56268;DHT22;42175;46.930;9.532;2023-09-12T15:19:46;24.60;60.90
56268;DHT22;42175;46.930;9.532;2023-09-12T15:22:11;24.70;60.50
56268;DHT22;42175;46.930;9.532;2023-09-12T15:24:40;24.60;61.10
56268;DHT22;42175;46.930;9.532;2023-09-12T15:27:06;24.60;60.90
56268;DHT22;42175;46.930;9.532;2023-09-12T15:29:32;24.80;62.10
56268;DHT22;42175;46.930;9.532;2023-09-12T15:31:58;24.80;62.00
56268;DHT22;42175;46.930;9.532;2023-09-12T15:34:26;24.80;62.20
56268;DHT22;42175;46.930;9.532;2023-09-12T15:37:06;24.90;62.60
56268;DHT22;42175;46.930;9.532;2023-09-12T15:39:32;24.90;63.00
56268;DHT22;42175;46.930;9.532;2023-09-12T15:41:58;24.90;63.10
56268;DHT22;42175;46.930;9.532;2023-09-12T15:44:24;24.90;63.10
56268;DHT22;42175;46.930;9.532;2023-09-12T15:46:51;25.00;63.20